sensor_id;sensor_type;location;lat;lon;timestamp;P1;durP1;ratioP1;P2;durP2;ratioP2
6282;SDS011;3174;53.486;9.568;2022-08-19T00:01:43;3.07;;;1.90;;
6282;SDS011;3174;53.486;9.568;2022-08-19T00:04:20;4.57;;;2.77;;
6282;SDS011;3174;53.486;9.568;2022-08-19T00:06:50;4.27;;;2.53;;
6282;SDS011;3174;53.486;9.568;2022-08-19T00:09:19;3.47;;;2.30;;
6282;SDS011;3174;53.486;9.568;2022-08-19T00:11:49;5.47;;;2.33;;
6282;SDS011;3174;53.486;9.568;2022-08-19T00:14:18;2.30;;;1.83;;
6282;SDS011;3174;53.486;9.568;2022-08-19T00:16:48;5.87;;;2.30;;
6282;SDS011;3174;53.486;9.568;2022-08-19T00:19:17;4.30;;;2.50;;
6282;SDS011;3174;53.486;9.568;2022-08-19T00:21:45;3.50;;;2.00;;
6282;SDS011;3174;53.486;9.568;2022-08-19T00:24:14;5.17;;;2.60;;
6282;SDS011;3174;53.486;9.568;2022-08-19T00:26:43;5.03;;;2.50;;
6282;SDS011;3174;53.486;9.568;2022-08-19T00:29:11;4.37;;;1.90;;
6282;SDS011;3174;53.486;9.568;2022-08-19T00:31:42;4.90;;;2.30;;
6282;SDS011;3174;53.486;9.568;2022-08-19T00:34:11;4.37;;;2.00;;
6282;SDS011;3174;53.486;9.568;2022-08-19T00:36:39;3.03;;;1.97;;
6282;SDS011;3174;53.486;9.568;2022-08-19T00:39:08;3.63;;;1.93;;
6282;SDS011;3174;53.486;9.568;2022-08-19T00:41:36;2.30;;;1.87;;
6282;SDS011;3174;53.486;9.568;2022-08-19T00:44:05;3.03;;;2.33;;
6282;SDS011;3174;53.486;9.568;2022-08-19T00:46:36;3.20;;;2.10;;
6282;SDS011;3174;53.486;9.568;2022-08-19T00:49:08;4.70;;;2.10;;
6282;SDS011;3174;53.486;9.568;2022-08-19T00:51:38;2.87;;;2.00;;
6282;SDS011;3174;53.486;9.568;2022-08-19T00:54:06;6.17;;;2.23;;
6282;SDS011;3174;53.486;9.568;2022-08-19T00:56:35;2.53;;;1.80;;
6282;SDS011;3174;53.486;9.568;2022-08-19T00:59:06;4.43;;;2.30;;
6282;SDS011;3174;53.486;9.568;2022-08-19T01:01:35;3.97;;;2.10;;
6282;SDS011;3174;53.486;9.568;2022-08-19T01:04:03;4.30;;;2.70;;
6282;SDS011;3174;53.486;9.568;2022-08-19T01:06:33;5.50;;;2.50;;
6282;SDS011;3174;53.486;9.568;2022-08-19T01:09:01;2.07;;;1.87;;
6282;SDS011;3174;53.486;9.568;2022-08-19T01:11:29;4.17;;;1.80;;
6282;SDS011;3174;53.486;9.568;2022-08-19T01:13:57;2.97;;;2.33;;
6282;SDS011;3174;53.486;9.568;2022-08-19T01:16:26;3.83;;;2.47;;
6282;SDS011;3174;53.486;9.568;2022-08-19T01:18:56;2.40;;;2.20;;
6282;SDS011;3174;53.486;9.568;2022-08-19T01:21:25;4.33;;;2.27;;
6282;SDS011;3174;53.486;9.568;2022-08-19T01:23:57;3.50;;;2.00;;
6282;SDS011;3174;53.486;9.568;2022-08-19T01:26:26;3.73;;;3.07;;
6282;SDS011;3174;53.486;9.568;2022-08-19T01:28:57;2.33;;;2.00;;
6282;SDS011;3174;53.486;9.568;2022-08-19T01:31:30;3.30;;;2.50;;
6282;SDS011;3174;53.486;9.568;2022-08-19T01:33:59;5.37;;;2.60;;
6282;SDS011;3174;53.486;9.568;2022-08-19T01:36:29;3.67;;;1.83;;
6282;SDS011;3174;53.486;9.568;2022-08-19T01:39:00;5.17;;;2.90;;
6282;SDS011;3174;53.486;9.568;2022-08-19T01:41:29;8.30;;;2.80;;
6282;SDS011;3174;53.486;9.568;2022-08-19T01:43:57;4.40;;;2.33;;
6282;SDS011;3174;53.486;9.568;2022-08-19T01:46:43;7.27;;;3.37;;
6282;SDS011;3174;53.486;9.568;2022-08-19T01:49:13;5.07;;;2.63;;
6282;SDS011;3174;53.486;9.568;2022-08-19T01:51:42;3.43;;;2.50;;
6282;SDS011;3174;53.486;9.568;2022-08-19T01:54:12;2.97;;;2.00;;
6282;SDS011;3174;53.486;9.568;2022-08-19T01:56:55;3.70;;;2.33;;
6282;SDS011;3174;53.486;9.568;2022-08-19T01:59:27;3.70;;;3.23;;
6282;SDS011;3174;53.486;9.568;2022-08-19T02:01:55;3.60;;;2.50;;
6282;SDS011;3174;53.486;9.568;2022-08-19T02:04:23;4.70;;;2.97;;
6282;SDS011;3174;53.486;9.568;2022-08-19T02:06:52;3.83;;;3.10;;
6282;SDS011;3174;53.486;9.568;2022-08-19T02:09:21;4.10;;;3.07;;
6282;SDS011;3174;53.486;9.568;2022-08-19T02:11:49;3.57;;;2.90;;
6282;SDS011;3174;53.486;9.568;2022-08-19T02:14:17;4.87;;;2.67;;
6282;SDS011;3174;53.486;9.568;2022-08-19T02:16:45;5.57;;;3.57;;
6282;SDS011;3174;53.486;9.568;2022-08-19T02:19:14;6.20;;;3.60;;
6282;SDS011;3174;53.486;9.568;2022-08-19T02:21:42;5.20;;;3.50;;
6282;SDS011;3174;53.486;9.568;2022-08-19T02:24:10;5.30;;;2.80;;
6282;SDS011;3174;53.486;9.568;2022-08-19T02:26:40;4.33;;;2.97;;
6282;SDS011;3174;53.486;9.568;2022-08-19T02:29:08;5.77;;;3.67;;
6282;SDS011;3174;53.486;9.568;2022-08-19T02:31:36;2.90;;;2.43;;
6282;SDS011;3174;53.486;9.568;2022-08-19T02:34:04;3.67;;;2.20;;
6282;SDS011;3174;53.486;9.568;2022-08-19T02:36:32;4.00;;;2.80;;
6282;SDS011;3174;53.486;9.568;2022-08-19T02:39:07;2.90;;;2.47;;
6282;SDS011;3174;53.486;9.568;2022-08-19T02:41:34;4.23;;;2.53;;
6282;SDS011;3174;53.486;9.568;2022-08-19T02:44:04;4.67;;;3.20;;
6282;SDS011;3174;53.486;9.568;2022-08-19T02:46:52;3.67;;;2.50;;
6282;SDS011;3174;53.486;9.568;2022-08-19T02:49:21;3.23;;;2.20;;
6282;SDS011;3174;53.486;9.568;2022-08-19T02:51:49;2.17;;;1.97;;
6282;SDS011;3174;53.486;9.568;2022-08-19T02:54:18;3.93;;;2.43;;
6282;SDS011;3174;53.486;9.568;2022-08-19T02:56:46;3.13;;;2.10;;
6282;SDS011;3174;53.486;9.568;2022-08-19T02:59:16;4.87;;;2.80;;
6282;SDS011;3174;53.486;9.568;2022-08-19T03:01:48;5.10;;;2.20;;
6282;SDS011;3174;53.486;9.568;2022-08-19T03:04:16;4.90;;;2.47;;
6282;SDS011;3174;53.486;9.568;2022-08-19T03:06:45;2.90;;;2.47;;
6282;SDS011;3174;53.486;9.568;2022-08-19T03:09:15;2.73;;;2.07;;
6282;SDS011;3174;53.486;9.568;2022-08-19T03:11:43;5.67;;;2.80;;
6282;SDS011;3174;53.486;9.568;2022-08-19T03:14:13;3.73;;;2.30;;
6282;SDS011;3174;53.486;9.568;2022-08-19T03:16:44;4.07;;;2.17;;
6282;SDS011;3174;53.486;9.568;2022-08-19T03:19:15;7.47;;;3.20;;
6282;SDS011;3174;53.486;9.568;2022-08-19T03:21:44;7.57;;;3.10;;
6282;SDS011;3174;53.486;9.568;2022-08-19T03:24:13;4.33;;;2.80;;
6282;SDS011;3174;53.486;9.568;2022-08-19T03:26:42;3.70;;;2.10;;
6282;SDS011;3174;53.486;9.568;2022-08-19T03:29:11;4.30;;;2.47;;
6282;SDS011;3174;53.486;9.568;2022-08-19T03:31:52;4.37;;;2.70;;
6282;SDS011;3174;53.486;9.568;2022-08-19T03:34:21;4.87;;;2.70;;
6282;SDS011;3174;53.486;9.568;2022-08-19T03:36:52;2.77;;;1.93;;
6282;SDS011;3174;53.486;9.568;2022-08-19T03:39:21;4.33;;;2.10;;
6282;SDS011;3174;53.486;9.568;2022-08-19T03:41:50;3.47;;;2.40;;
6282;SDS011;3174;53.486;9.568;2022-08-19T03:44:39;5.50;;;2.40;;
6282;SDS011;3174;53.486;9.568;2022-08-19T03:47:10;3.53;;;2.17;;
6282;SDS011;3174;53.486;9.568;2022-08-19T03:49:42;4.00;;;2.60;;
6282;SDS011;3174;53.486;9.568;2022-08-19T03:52:10;3.40;;;2.00;;
6282;SDS011;3174;53.486;9.568;2022-08-19T03:54:38;7.27;;;3.30;;
6282;SDS011;3174;53.486;9.568;2022-08-19T03:57:06;4.73;;;2.60;;
6282;SDS011;3174;53.486;9.568;2022-08-19T03:59:36;6.87;;;2.77;;
6282;SDS011;3174;53.486;9.568;2022-08-19T04:02:06;5.07;;;2.83;;
6282;SDS011;3174;53.486;9.568;2022-08-19T04:04:37;5.50;;;2.20;;
6282;SDS011;3174;53.486;9.568;2022-08-19T04:07:06;6.63;;;3.40;;
6282;SDS011;3174;53.486;9.568;2022-08-19T04:09:34;4.90;;;2.73;;
6282;SDS011;3174;53.486;9.568;2022-08-19T04:12:03;4.83;;;3.07;;
6282;SDS011;3174;53.486;9.568;2022-08-19T04:14:33;4.47;;;2.93;;
6282;SDS011;3174;53.486;9.568;2022-08-19T04:17:02;7.33;;;3.00;;
6282;SDS011;3174;53.486;9.568;2022-08-19T04:19:31;6.67;;;3.17;;
6282;SDS011;3174;53.486;9.568;2022-08-19T04:22:01;6.60;;;3.23;;
6282;SDS011;3174;53.486;9.568;2022-08-19T04:24:30;3.77;;;2.43;;
6282;SDS011;3174;53.486;9.568;2022-08-19T04:26:58;7.10;;;2.77;;
6282;SDS011;3174;53.486;9.568;2022-08-19T04:29:27;4.83;;;2.90;;
6282;SDS011;3174;53.486;9.568;2022-08-19T04:31:55;6.00;;;3.43;;
6282;SDS011;3174;53.486;9.568;2022-08-19T04:34:25;7.20;;;3.53;;
6282;SDS011;3174;53.486;9.568;2022-08-19T04:36:55;4.07;;;2.60;;
6282;SDS011;3174;53.486;9.568;2022-08-19T04:39:27;4.30;;;2.30;;
6282;SDS011;3174;53.486;9.568;2022-08-19T04:42:10;6.53;;;3.40;;
6282;SDS011;3174;53.486;9.568;2022-08-19T04:44:56;6.67;;;3.17;;
6282;SDS011;3174;53.486;9.568;2022-08-19T04:47:25;3.13;;;2.80;;
6282;SDS011;3174;53.486;9.568;2022-08-19T04:50:14;7.23;;;3.27;;
6282;SDS011;3174;53.486;9.568;2022-08-19T04:52:42;6.33;;;3.57;;
6282;SDS011;3174;53.486;9.568;2022-08-19T04:55:12;6.17;;;3.10;;
6282;SDS011;3174;53.486;9.568;2022-08-19T04:57:40;5.67;;;3.00;;
6282;SDS011;3174;53.486;9.568;2022-08-19T05:00:09;7.60;;;3.80;;
6282;SDS011;3174;53.486;9.568;2022-08-19T05:02:38;7.53;;;3.53;;
6282;SDS011;3174;53.486;9.568;2022-08-19T05:05:07;5.07;;;3.07;;
6282;SDS011;3174;53.486;9.568;2022-08-19T05:07:35;5.23;;;3.93;;
6282;SDS011;3174;53.486;9.568;2022-08-19T05:10:04;3.23;;;2.20;;
6282;SDS011;3174;53.486;9.568;2022-08-19T05:12:34;8.80;;;3.23;;
6282;SDS011;3174;53.486;9.568;2022-08-19T05:15:03;13.73;;;3.90;;
6282;SDS011;3174;53.486;9.568;2022-08-19T05:17:34;9.27;;;3.87;;
6282;SDS011;3174;53.486;9.568;2022-08-19T05:20:05;7.70;;;3.60;;
6282;SDS011;3174;53.486;9.568;2022-08-19T05:22:52;6.90;;;3.30;;
6282;SDS011;3174;53.486;9.568;2022-08-19T05:25:21;7.47;;;3.70;;
6282;SDS011;3174;53.486;9.568;2022-08-19T05:27:52;7.83;;;3.90;;
6282;SDS011;3174;53.486;9.568;2022-08-19T05:30:20;4.63;;;3.20;;
6282;SDS011;3174;53.486;9.568;2022-08-19T05:33:08;5.40;;;3.17;;
6282;SDS011;3174;53.486;9.568;2022-08-19T05:35:38;2.53;;;1.87;;
6282;SDS011;3174;53.486;9.568;2022-08-19T05:38:07;4.47;;;3.27;;
6282;SDS011;3174;53.486;9.568;2022-08-19T05:40:37;6.17;;;3.40;;
6282;SDS011;3174;53.486;9.568;2022-08-19T05:43:07;3.57;;;2.70;;
6282;SDS011;3174;53.486;9.568;2022-08-19T05:45:37;5.47;;;3.37;;
6282;SDS011;3174;53.486;9.568;2022-08-19T05:48:06;5.50;;;3.70;;
6282;SDS011;3174;53.486;9.568;2022-08-19T05:50:37;6.50;;;4.10;;
6282;SDS011;3174;53.486;9.568;2022-08-19T05:53:06;6.40;;;3.50;;
6282;SDS011;3174;53.486;9.568;2022-08-19T05:55:35;5.57;;;2.50;;
6282;SDS011;3174;53.486;9.568;2022-08-19T05:58:04;4.00;;;2.80;;
6282;SDS011;3174;53.486;9.568;2022-08-19T06:00:34;6.60;;;2.83;;
6282;SDS011;3174;53.486;9.568;2022-08-19T06:03:02;5.00;;;3.50;;
6282;SDS011;3174;53.486;9.568;2022-08-19T06:05:38;5.97;;;3.80;;
6282;SDS011;3174;53.486;9.568;2022-08-19T06:08:17;4.90;;;3.40;;
6282;SDS011;3174;53.486;9.568;2022-08-19T06:11:11;6.37;;;3.50;;
6282;SDS011;3174;53.486;9.568;2022-08-19T06:13:42;6.53;;;2.90;;
6282;SDS011;3174;53.486;9.568;2022-08-19T06:16:11;4.73;;;3.53;;
6282;SDS011;3174;53.486;9.568;2022-08-19T06:18:39;5.80;;;3.47;;
6282;SDS011;3174;53.486;9.568;2022-08-19T06:21:07;7.20;;;3.13;;
6282;SDS011;3174;53.486;9.568;2022-08-19T06:23:35;5.10;;;3.17;;
6282;SDS011;3174;53.486;9.568;2022-08-19T06:26:03;5.63;;;4.10;;
6282;SDS011;3174;53.486;9.568;2022-08-19T06:28:31;6.20;;;3.30;;
6282;SDS011;3174;53.486;9.568;2022-08-19T06:31:06;4.33;;;3.23;;
6282;SDS011;3174;53.486;9.568;2022-08-19T06:33:35;5.30;;;3.17;;
6282;SDS011;3174;53.486;9.568;2022-08-19T06:36:04;3.57;;;2.60;;
6282;SDS011;3174;53.486;9.568;2022-08-19T06:38:32;4.00;;;2.67;;
6282;SDS011;3174;53.486;9.568;2022-08-19T06:41:01;3.63;;;2.50;;
6282;SDS011;3174;53.486;9.568;2022-08-19T06:43:33;3.90;;;2.20;;
6282;SDS011;3174;53.486;9.568;2022-08-19T06:46:11;4.10;;;2.10;;
6282;SDS011;3174;53.486;9.568;2022-08-19T06:48:41;4.93;;;3.37;;
6282;SDS011;3174;53.486;9.568;2022-08-19T06:51:11;6.07;;;4.53;;
6282;SDS011;3174;53.486;9.568;2022-08-19T06:53:44;5.67;;;3.70;;
6282;SDS011;3174;53.486;9.568;2022-08-19T06:56:14;6.20;;;4.03;;
6282;SDS011;3174;53.486;9.568;2022-08-19T06:58:42;6.40;;;3.97;;
6282;SDS011;3174;53.486;9.568;2022-08-19T07:01:12;7.23;;;4.50;;
6282;SDS011;3174;53.486;9.568;2022-08-19T07:03:40;6.97;;;4.07;;
6282;SDS011;3174;53.486;9.568;2022-08-19T07:06:10;8.63;;;4.40;;
6282;SDS011;3174;53.486;9.568;2022-08-19T07:09:04;6.47;;;3.57;;
6282;SDS011;3174;53.486;9.568;2022-08-19T07:11:32;4.40;;;3.03;;
6282;SDS011;3174;53.486;9.568;2022-08-19T07:14:05;7.77;;;4.20;;
6282;SDS011;3174;53.486;9.568;2022-08-19T07:16:46;7.67;;;4.33;;
6282;SDS011;3174;53.486;9.568;2022-08-19T07:19:18;7.20;;;4.27;;
6282;SDS011;3174;53.486;9.568;2022-08-19T07:21:50;10.80;;;5.20;;
6282;SDS011;3174;53.486;9.568;2022-08-19T07:24:19;8.40;;;4.67;;
6282;SDS011;3174;53.486;9.568;2022-08-19T07:26:50;8.67;;;5.03;;
6282;SDS011;3174;53.486;9.568;2022-08-19T07:29:20;11.00;;;5.07;;
6282;SDS011;3174;53.486;9.568;2022-08-19T07:31:55;8.50;;;4.90;;
6282;SDS011;3174;53.486;9.568;2022-08-19T07:34:26;7.60;;;4.17;;
6282;SDS011;3174;53.486;9.568;2022-08-19T07:36:55;8.43;;;4.97;;
6282;SDS011;3174;53.486;9.568;2022-08-19T07:39:25;8.50;;;5.07;;
6282;SDS011;3174;53.486;9.568;2022-08-19T07:41:54;7.83;;;4.90;;
6282;SDS011;3174;53.486;9.568;2022-08-19T07:44:24;6.97;;;3.47;;
6282;SDS011;3174;53.486;9.568;2022-08-19T07:46:54;5.97;;;3.27;;
6282;SDS011;3174;53.486;9.568;2022-08-19T07:49:23;3.37;;;2.33;;
6282;SDS011;3174;53.486;9.568;2022-08-19T07:51:53;4.73;;;3.23;;
6282;SDS011;3174;53.486;9.568;2022-08-19T07:54:22;5.67;;;4.03;;
6282;SDS011;3174;53.486;9.568;2022-08-19T07:56:51;5.30;;;4.00;;
6282;SDS011;3174;53.486;9.568;2022-08-19T07:59:19;4.60;;;3.23;;
6282;SDS011;3174;53.486;9.568;2022-08-19T08:01:49;4.60;;;3.47;;
6282;SDS011;3174;53.486;9.568;2022-08-19T08:04:23;12.93;;;4.70;;
6282;SDS011;3174;53.486;9.568;2022-08-19T08:07:08;5.80;;;4.30;;
6282;SDS011;3174;53.486;9.568;2022-08-19T08:09:57;9.20;;;5.00;;
6282;SDS011;3174;53.486;9.568;2022-08-19T08:12:30;6.57;;;3.93;;
6282;SDS011;3174;53.486;9.568;2022-08-19T08:15:02;6.17;;;4.10;;
6282;SDS011;3174;53.486;9.568;2022-08-19T08:17:33;5.53;;;3.00;;
6282;SDS011;3174;53.486;9.568;2022-08-19T08:20:18;5.60;;;3.37;;
6282;SDS011;3174;53.486;9.568;2022-08-19T08:22:49;9.90;;;4.13;;
6282;SDS011;3174;53.486;9.568;2022-08-19T08:25:35;7.70;;;4.70;;
6282;SDS011;3174;53.486;9.568;2022-08-19T08:28:04;6.17;;;4.13;;
6282;SDS011;3174;53.486;9.568;2022-08-19T08:30:36;6.60;;;4.90;;
6282;SDS011;3174;53.486;9.568;2022-08-19T08:33:10;5.93;;;4.03;;
6282;SDS011;3174;53.486;9.568;2022-08-19T08:35:40;3.53;;;2.60;;
6282;SDS011;3174;53.486;9.568;2022-08-19T08:38:09;6.03;;;3.10;;
6282;SDS011;3174;53.486;9.568;2022-08-19T08:40:39;9.23;;;5.10;;
6282;SDS011;3174;53.486;9.568;2022-08-19T08:43:12;8.40;;;4.63;;
6282;SDS011;3174;53.486;9.568;2022-08-19T08:45:49;11.17;;;4.83;;
6282;SDS011;3174;53.486;9.568;2022-08-19T08:48:22;6.50;;;4.23;;
6282;SDS011;3174;53.486;9.568;2022-08-19T08:50:54;14.33;;;5.30;;
6282;SDS011;3174;53.486;9.568;2022-08-19T08:53:23;8.30;;;5.00;;
6282;SDS011;3174;53.486;9.568;2022-08-19T08:56:00;7.20;;;3.93;;
6282;SDS011;3174;53.486;9.568;2022-08-19T08:58:32;8.30;;;3.90;;
6282;SDS011;3174;53.486;9.568;2022-08-19T09:01:09;8.33;;;4.27;;
6282;SDS011;3174;53.486;9.568;2022-08-19T09:03:38;9.87;;;4.73;;
6282;SDS011;3174;53.486;9.568;2022-08-19T09:06:11;6.90;;;4.13;;
6282;SDS011;3174;53.486;9.568;2022-08-19T09:08:45;6.77;;;3.97;;
6282;SDS011;3174;53.486;9.568;2022-08-19T09:11:23;7.13;;;4.33;;
6282;SDS011;3174;53.486;9.568;2022-08-19T09:14:11;3.67;;;3.17;;
6282;SDS011;3174;53.486;9.568;2022-08-19T09:17:06;6.10;;;3.90;;
6282;SDS011;3174;53.486;9.568;2022-08-19T09:19:35;7.97;;;4.67;;
6282;SDS011;3174;53.486;9.568;2022-08-19T09:22:06;3.73;;;2.53;;
6282;SDS011;3174;53.486;9.568;2022-08-19T09:24:35;7.33;;;4.97;;
6282;SDS011;3174;53.486;9.568;2022-08-19T09:27:08;6.37;;;4.40;;
6282;SDS011;3174;53.486;9.568;2022-08-19T09:29:44;8.33;;;4.03;;
6282;SDS011;3174;53.486;9.568;2022-08-19T09:32:20;6.47;;;4.27;;
6282;SDS011;3174;53.486;9.568;2022-08-19T09:34:52;6.93;;;3.87;;
6282;SDS011;3174;53.486;9.568;2022-08-19T09:37:22;4.60;;;3.43;;
6282;SDS011;3174;53.486;9.568;2022-08-19T09:39:51;7.47;;;3.63;;
6282;SDS011;3174;53.486;9.568;2022-08-19T09:42:21;8.67;;;4.07;;
6282;SDS011;3174;53.486;9.568;2022-08-19T09:45:00;9.33;;;3.67;;
6282;SDS011;3174;53.486;9.568;2022-08-19T09:47:35;7.97;;;4.07;;
6282;SDS011;3174;53.486;9.568;2022-08-19T09:50:06;7.10;;;3.97;;
6282;SDS011;3174;53.486;9.568;2022-08-19T09:52:37;4.33;;;3.23;;
6282;SDS011;3174;53.486;9.568;2022-08-19T09:55:19;5.50;;;2.73;;
6282;SDS011;3174;53.486;9.568;2022-08-19T09:57:49;5.30;;;3.40;;
6282;SDS011;3174;53.486;9.568;2022-08-19T10:00:17;8.10;;;4.37;;
6282;SDS011;3174;53.486;9.568;2022-08-19T10:02:46;6.63;;;3.60;;
6282;SDS011;3174;53.486;9.568;2022-08-19T10:05:20;6.80;;;4.37;;
6282;SDS011;3174;53.486;9.568;2022-08-19T10:08:11;6.97;;;4.20;;
6282;SDS011;3174;53.486;9.568;2022-08-19T10:10:42;6.17;;;4.07;;
6282;SDS011;3174;53.486;9.568;2022-08-19T10:13:12;7.70;;;3.50;;
6282;SDS011;3174;53.486;9.568;2022-08-19T10:15:41;5.70;;;3.97;;
6282;SDS011;3174;53.486;9.568;2022-08-19T10:18:14;6.17;;;4.10;;
6282;SDS011;3174;53.486;9.568;2022-08-19T10:20:44;7.23;;;4.50;;
6282;SDS011;3174;53.486;9.568;2022-08-19T10:23:19;5.90;;;4.10;;
6282;SDS011;3174;53.486;9.568;2022-08-19T10:25:48;5.87;;;3.97;;
6282;SDS011;3174;53.486;9.568;2022-08-19T10:28:19;6.00;;;4.07;;
6282;SDS011;3174;53.486;9.568;2022-08-19T10:30:50;7.53;;;4.50;;
6282;SDS011;3174;53.486;9.568;2022-08-19T10:33:19;6.53;;;4.80;;
6282;SDS011;3174;53.486;9.568;2022-08-19T10:36:08;6.07;;;3.60;;
6282;SDS011;3174;53.486;9.568;2022-08-19T10:38:46;9.53;;;5.13;;
6282;SDS011;3174;53.486;9.568;2022-08-19T10:41:20;5.03;;;3.07;;
6282;SDS011;3174;53.486;9.568;2022-08-19T10:43:51;6.13;;;3.50;;
6282;SDS011;3174;53.486;9.568;2022-08-19T10:46:21;6.20;;;4.13;;
6282;SDS011;3174;53.486;9.568;2022-08-19T10:48:51;3.57;;;3.07;;
6282;SDS011;3174;53.486;9.568;2022-08-19T10:51:28;3.67;;;3.23;;
6282;SDS011;3174;53.486;9.568;2022-08-19T10:54:17;4.00;;;2.70;;
6282;SDS011;3174;53.486;9.568;2022-08-19T10:56:58;4.25;;;3.08;;
6282;SDS011;3174;53.486;9.568;2022-08-19T10:59:27;3.38;;;2.90;;
6282;SDS011;3174;53.486;9.568;2022-08-19T11:02:02;7.70;;;4.95;;
6282;SDS011;3174;53.486;9.568;2022-08-19T11:04:32;6.07;;;4.03;;
6282;SDS011;3174;53.486;9.568;2022-08-19T11:07:01;4.38;;;3.17;;
6282;SDS011;3174;53.486;9.568;2022-08-19T11:09:31;5.10;;;4.13;;
6282;SDS011;3174;53.486;9.568;2022-08-19T11:12:05;5.07;;;3.95;;
6282;SDS011;3174;53.486;9.568;2022-08-19T11:14:34;6.88;;;3.30;;
6282;SDS011;3174;53.486;9.568;2022-08-19T11:17:03;6.57;;;3.65;;
6282;SDS011;3174;53.486;9.568;2022-08-19T11:19:32;7.57;;;5.15;;
6282;SDS011;3174;53.486;9.568;2022-08-19T11:22:00;10.02;;;5.28;;
6282;SDS011;3174;53.486;9.568;2022-08-19T11:24:29;7.47;;;5.07;;
6282;SDS011;3174;53.486;9.568;2022-08-19T11:27:02;5.32;;;3.65;;
6282;SDS011;3174;53.486;9.568;2022-08-19T11:29:31;5.20;;;2.88;;
6282;SDS011;3174;53.486;9.568;2022-08-19T11:32:03;5.18;;;3.67;;
6282;SDS011;3174;53.486;9.568;2022-08-19T11:34:31;6.30;;;3.77;;
6282;SDS011;3174;53.486;9.568;2022-08-19T11:37:01;4.63;;;3.80;;
6282;SDS011;3174;53.486;9.568;2022-08-19T11:39:30;7.03;;;4.90;;
6282;SDS011;3174;53.486;9.568;2022-08-19T11:42:01;6.32;;;4.40;;
6282;SDS011;3174;53.486;9.568;2022-08-19T11:44:49;8.70;;;5.88;;
6282;SDS011;3174;53.486;9.568;2022-08-19T11:47:18;7.70;;;4.95;;
6282;SDS011;3174;53.486;9.568;2022-08-19T11:49:46;8.07;;;5.50;;
6282;SDS011;3174;53.486;9.568;2022-08-19T11:52:14;5.18;;;4.03;;
6282;SDS011;3174;53.486;9.568;2022-08-19T11:54:42;11.55;;;5.38;;
6282;SDS011;3174;53.486;9.568;2022-08-19T11:57:12;8.90;;;5.00;;
6282;SDS011;3174;53.486;9.568;2022-08-19T11:59:47;8.73;;;5.03;;
6282;SDS011;3174;53.486;9.568;2022-08-19T12:02:15;5.70;;;3.80;;
6282;SDS011;3174;53.486;9.568;2022-08-19T12:04:43;4.78;;;3.55;;
6282;SDS011;3174;53.486;9.568;2022-08-19T12:07:12;4.60;;;3.65;;
6282;SDS011;3174;53.486;9.568;2022-08-19T12:09:40;8.85;;;4.65;;
6282;SDS011;3174;53.486;9.568;2022-08-19T12:12:12;7.47;;;4.60;;
6282;SDS011;3174;53.486;9.568;2022-08-19T12:14:40;6.22;;;4.00;;
6282;SDS011;3174;53.486;9.568;2022-08-19T12:17:08;7.63;;;5.43;;
6282;SDS011;3174;53.486;9.568;2022-08-19T12:19:39;7.85;;;5.15;;
6282;SDS011;3174;53.486;9.568;2022-08-19T12:22:07;8.13;;;5.90;;
6282;SDS011;3174;53.486;9.568;2022-08-19T12:24:35;8.82;;;5.47;;
6282;SDS011;3174;53.486;9.568;2022-08-19T12:27:03;6.97;;;5.10;;
6282;SDS011;3174;53.486;9.568;2022-08-19T12:29:36;7.38;;;4.57;;
6282;SDS011;3174;53.486;9.568;2022-08-19T12:32:04;6.00;;;4.50;;
6282;SDS011;3174;53.486;9.568;2022-08-19T12:34:35;4.73;;;3.80;;
6282;SDS011;3174;53.486;9.568;2022-08-19T12:37:04;4.27;;;3.40;;
6282;SDS011;3174;53.486;9.568;2022-08-19T12:39:34;6.35;;;4.97;;
6282;SDS011;3174;53.486;9.568;2022-08-19T12:42:03;5.65;;;3.83;;
6282;SDS011;3174;53.486;9.568;2022-08-19T12:44:31;6.93;;;5.25;;
6282;SDS011;3174;53.486;9.568;2022-08-19T12:47:03;5.13;;;3.78;;
6282;SDS011;3174;53.486;9.568;2022-08-19T12:49:34;6.75;;;4.82;;
6282;SDS011;3174;53.486;9.568;2022-08-19T12:52:20;4.88;;;4.15;;
6282;SDS011;3174;53.486;9.568;2022-08-19T12:54:48;7.88;;;5.10;;
6282;SDS011;3174;53.486;9.568;2022-08-19T12:57:20;6.72;;;5.00;;
6282;SDS011;3174;53.486;9.568;2022-08-19T12:59:57;5.43;;;4.05;;
6282;SDS011;3174;53.486;9.568;2022-08-19T13:02:26;5.80;;;4.93;;
6282;SDS011;3174;53.486;9.568;2022-08-19T13:04:54;5.88;;;4.25;;
6282;SDS011;3174;53.486;9.568;2022-08-19T13:07:23;6.50;;;5.38;;
6282;SDS011;3174;53.486;9.568;2022-08-19T13:09:51;6.05;;;4.07;;
6282;SDS011;3174;53.486;9.568;2022-08-19T13:12:19;6.78;;;5.22;;
6282;SDS011;3174;53.486;9.568;2022-08-19T13:14:50;4.30;;;3.65;;
6282;SDS011;3174;53.486;9.568;2022-08-19T13:17:19;7.00;;;4.50;;
6282;SDS011;3174;53.486;9.568;2022-08-19T13:19:48;6.75;;;4.88;;
6282;SDS011;3174;53.486;9.568;2022-08-19T13:22:17;5.20;;;4.13;;
6282;SDS011;3174;53.486;9.568;2022-08-19T13:24:45;7.55;;;5.28;;
6282;SDS011;3174;53.486;9.568;2022-08-19T13:27:13;6.97;;;4.75;;
6282;SDS011;3174;53.486;9.568;2022-08-19T13:29:41;7.93;;;5.20;;
6282;SDS011;3174;53.486;9.568;2022-08-19T13:32:28;7.35;;;4.97;;
6282;SDS011;3174;53.486;9.568;2022-08-19T13:35:15;6.07;;;4.30;;
6282;SDS011;3174;53.486;9.568;2022-08-19T13:37:44;5.70;;;4.85;;
6282;SDS011;3174;53.486;9.568;2022-08-19T13:40:15;5.95;;;3.83;;
6282;SDS011;3174;53.486;9.568;2022-08-19T13:42:46;5.55;;;4.40;;
6282;SDS011;3174;53.486;9.568;2022-08-19T13:45:16;6.68;;;4.78;;
6282;SDS011;3174;53.486;9.568;2022-08-19T13:47:49;6.28;;;5.07;;
6282;SDS011;3174;53.486;9.568;2022-08-19T13:50:26;8.02;;;5.15;;
6282;SDS011;3174;53.486;9.568;2022-08-19T13:52:55;7.40;;;5.38;;
6282;SDS011;3174;53.486;9.568;2022-08-19T13:55:24;8.52;;;4.82;;
6282;SDS011;3174;53.486;9.568;2022-08-19T13:57:54;6.18;;;5.28;;
6282;SDS011;3174;53.486;9.568;2022-08-19T14:00:26;5.45;;;4.35;;
6282;SDS011;3174;53.486;9.568;2022-08-19T14:03:14;6.90;;;4.72;;
6282;SDS011;3174;53.486;9.568;2022-08-19T14:05:45;4.15;;;3.75;;
6282;SDS011;3174;53.486;9.568;2022-08-19T14:08:25;3.92;;;3.53;;
6282;SDS011;3174;53.486;9.568;2022-08-19T14:10:54;5.10;;;4.07;;
6282;SDS011;3174;53.486;9.568;2022-08-19T14:13:23;7.43;;;5.38;;
6282;SDS011;3174;53.486;9.568;2022-08-19T14:15:51;6.07;;;4.00;;
6282;SDS011;3174;53.486;9.568;2022-08-19T14:18:20;4.45;;;3.63;;
6282;SDS011;3174;53.486;9.568;2022-08-19T14:20:55;5.28;;;4.05;;
6282;SDS011;3174;53.486;9.568;2022-08-19T14:23:24;9.48;;;5.18;;
6282;SDS011;3174;53.486;9.568;2022-08-19T14:25:52;7.13;;;4.20;;
6282;SDS011;3174;53.486;9.568;2022-08-19T14:28:29;3.85;;;3.22;;
6282;SDS011;3174;53.486;9.568;2022-08-19T14:31:07;9.20;;;4.47;;
6282;SDS011;3174;53.486;9.568;2022-08-19T14:33:36;4.35;;;3.47;;
6282;SDS011;3174;53.486;9.568;2022-08-19T14:36:09;3.58;;;3.28;;
6282;SDS011;3174;53.486;9.568;2022-08-19T14:38:37;3.88;;;3.47;;
6282;SDS011;3174;53.486;9.568;2022-08-19T14:41:07;6.88;;;3.55;;
6282;SDS011;3174;53.486;9.568;2022-08-19T14:43:36;4.53;;;3.75;;
6282;SDS011;3174;53.486;9.568;2022-08-19T14:46:07;4.43;;;3.40;;
6282;SDS011;3174;53.486;9.568;2022-08-19T14:48:52;3.95;;;3.20;;
6282;SDS011;3174;53.486;9.568;2022-08-19T14:52:03;4.97;;;3.45;;
6282;SDS011;3174;53.486;9.568;2022-08-19T14:54:32;4.53;;;3.47;;
6282;SDS011;3174;53.486;9.568;2022-08-19T14:57:00;3.70;;;3.40;;
6282;SDS011;3174;53.486;9.568;2022-08-19T14:59:38;7.80;;;4.75;;
6282;SDS011;3174;53.486;9.568;2022-08-19T15:02:06;4.40;;;3.38;;
6282;SDS011;3174;53.486;9.568;2022-08-19T15:04:55;5.35;;;3.45;;
6282;SDS011;3174;53.486;9.568;2022-08-19T15:07:34;3.53;;;3.22;;
6282;SDS011;3174;53.486;9.568;2022-08-19T15:10:09;4.30;;;3.80;;
6282;SDS011;3174;53.486;9.568;2022-08-19T15:12:40;3.53;;;3.15;;
6282;SDS011;3174;53.486;9.568;2022-08-19T15:15:39;5.88;;;4.05;;
6282;SDS011;3174;53.486;9.568;2022-08-19T15:18:08;4.55;;;3.20;;
6282;SDS011;3174;53.486;9.568;2022-08-19T15:20:38;4.15;;;3.42;;
6282;SDS011;3174;53.486;9.568;2022-08-19T15:23:09;5.03;;;4.30;;
6282;SDS011;3174;53.486;9.568;2022-08-19T15:25:38;4.32;;;3.00;;
6282;SDS011;3174;53.486;9.568;2022-08-19T15:28:07;4.15;;;3.72;;
6282;SDS011;3174;53.486;9.568;2022-08-19T15:30:38;5.10;;;3.50;;
6282;SDS011;3174;53.486;9.568;2022-08-19T15:33:07;4.30;;;3.08;;
6282;SDS011;3174;53.486;9.568;2022-08-19T15:35:35;3.13;;;2.75;;
6282;SDS011;3174;53.486;9.568;2022-08-19T15:38:10;7.63;;;4.70;;
6282;SDS011;3174;53.486;9.568;2022-08-19T15:40:44;4.00;;;3.38;;
6282;SDS011;3174;53.486;9.568;2022-08-19T15:43:19;4.53;;;3.42;;